Time;durP1;ratioP1;P1;durP2;ratioP2;P2;SDS_P1;SDS_P2;PMS_P1;PMS_P2;Temp;Humidity;BMP_temperature;BMP_pressure;BME280_temperature;BME280_humidity;BME280_pressure;Samples;Min_cycle;Max_cycle;Signal;HPM_P1;HPM_P2
2021/01/12 00:02:19;;;;;;;;;;;;;;;1.89;100.00;98400.94;4908169;29;19952;-84
2021/01/12 00:04:44;;;;;;;;;;;;;;;1.82;100.00;98392.50;4916421;29;19918;-84
2021/01/12 00:07:10;;;;;;;;;;;;;;;1.85;100.00;98379.81;4906965;29;19926;-84
2021/01/12 00:09:36;;;;;;;;;;;;;;;1.87;100.00;98382.31;4933330;29;19918;-85
2021/01/12 00:12:01;;;;;;;;;;;;;;;1.94;100.00;98371.31;4907514;29;20001;-84
2021/01/12 00:14:32;;;;;;;;;;;;;;;1.99;100.00;98354.31;4908611;29;19926;-84
2021/01/12 00:17:04;;;;;;;;;;;;;;;1.93;100.00;98361.97;4906466;29;20212;-86
2021/01/12 00:19:30;;;;;;;;;;;;;;;1.90;100.00;98364.56;4890439;29;19915;-84
2021/01/12 00:21:56;;;;;;;;;;;;;;;1.87;100.00;98359.47;4906891;29;19919;-84
2021/01/12 00:24:21;;;;;;;;;;;;;;;1.85;100.00;98349.34;4905160;29;20010;-84
2021/01/12 00:26:47;;;;;;;;;;;;;;;1.88;100.00;98351.84;4907855;29;20021;-83
2021/01/12 00:29:12;;;;;;;;;;;;;;;1.94;100.00;98340.84;4906649;29;19921;-84
2021/01/12 00:31:39;;;;;;;;;;;;;;;1.91;100.00;98348.44;4906601;29;19961;-84
2021/01/12 00:34:04;;;;;;;;;;;;;;;1.96;100.00;98344.19;4906329;29;19918;-84
2021/01/12 00:36:30;;;;;;;;;;;;;;;1.91;100.00;98337.47;4905576;29;19970;-84
2021/01/12 00:38:56;;;;;;;;;;;;;;;1.91;100.00;98335.75;4916000;29;19970;-84
2021/01/12 00:41:21;;;;;;;;;;;;;;;1.94;100.00;98330.66;4906164;29;20460;-85
2021/01/12 00:43:47;;;;;;;;;;;;;;;1.95;100.00;98329.81;4910072;29;19914;-85
2021/01/12 00:46:12;;;;;;;;;;;;;;;1.94;100.00;98327.28;4905113;29;19922;-85
2021/01/12 00:48:37;;;;;;;;;;;;;;;2.03;100.00;98329.72;4932845;29;19970;-85
2021/01/12 00:51:03;;;;;;;;;;;;;;;1.97;100.00;98319.66;4905088;29;19919;-84
2021/01/12 00:53:28;;;;;;;;;;;;;;;1.96;100.00;98312.88;4906464;29;19926;-84
2021/01/12 00:55:53;;;;;;;;;;;;;;;2.00;100.00;98309.44;4906371;29;19919;-85
2021/01/12 00:58:19;;;;;;;;;;;;;;;2.02;100.00;98308.56;4915387;29;20017;-85
2021/01/12 01:00:44;;;;;;;;;;;;;;;2.02;100.00;98303.50;4916100;29;19922;-84
2021/01/12 01:03:09;;;;;;;;;;;;;;;2.09;100.00;98305.13;4905743;29;19918;-84
2021/01/12 01:05:36;;;;;;;;;;;;;;;2.14;100.00;98296.63;4907428;29;20266;-84
2021/01/12 01:08:02;;;;;;;;;;;;;;;2.04;100.00;98289.09;4907742;29;19922;-85
2021/01/12 01:10:27;;;;;;;;;;;;;;;2.06;100.00;98300.09;4903525;29;20361;-84
2021/01/12 01:12:53;;;;;;;;;;;;;;;2.12;100.00;98293.25;4905189;29;19918;-84
2021/01/12 01:15:18;;;;;;;;;;;;;;;2.15;100.00;98283.09;4905080;29;19918;-85
2021/01/12 01:17:43;;;;;;;;;;;;;;;2.11;100.00;98282.25;4904964;29;19926;-84
2021/01/12 01:20:09;;;;;;;;;;;;;;;2.05;100.00;98273.00;4915146;29;19929;-84
2021/01/12 01:22:34;;;;;;;;;;;;;;;2.05;100.00;98270.47;4915610;29;19919;-85
2021/01/12 01:25:00;;;;;;;;;;;;;;;2.14;100.00;98268.69;4905748;29;19922;-84
2021/01/12 01:27:25;;;;;;;;;;;;;;;2.08;100.00;98267.06;4904396;29;19915;-85
2021/01/12 01:29:50;;;;;;;;;;;;;;;2.14;100.00;98261.06;4906405;29;20047;-84
2021/01/12 01:32:16;;;;;;;;;;;;;;;2.15;100.00;98252.59;4915488;29;19914;-84
2021/01/12 01:34:41;;;;;;;;;;;;;;;2.15;100.00;98252.59;4905779;29;19918;-85
2021/01/12 01:37:07;;;;;;;;;;;;;;;2.14;100.00;98243.28;4907711;29;19976;-84
2021/01/12 01:39:32;;;;;;;;;;;;;;;2.12;100.00;98228.06;4906785;29;20345;-84
2021/01/12 01:42:01;;;;;;;;;;;;;;;2.16;100.00;98241.56;4903126;29;19927;-84
2021/01/12 01:44:26;;;;;;;;;;;;;;;2.04;100.00;98233.22;4904837;29;20325;-83
2021/01/12 01:46:52;;;;;;;;;;;;;;;2.15;100.00;98227.19;4905877;29;20014;-84
2021/01/12 01:49:17;;;;;;;;;;;;;;;2.06;100.00;98231.50;4887412;29;20614;-84
2021/01/12 01:51:42;;;;;;;;;;;;;;;2.04;100.00;98232.38;4905573;29;19918;-85
2021/01/12 01:54:09;;;;;;;;;;;;;;;2.07;100.00;98229.81;4906002;29;19919;-85
2021/01/12 01:56:34;;;;;;;;;;;;;;;2.11;100.00;98225.56;4906805;29;19915;-84
2021/01/12 01:58:59;;;;;;;;;;;;;;;2.11;100.00;98225.56;4905328;29;21274;-84
2021/01/12 02:01:26;;;;;;;;;;;;;;;2.08;100.00;98217.09;4904860;29;20009;-84
2021/01/12 02:03:58;;;;;;;;;;;;;;;2.07;100.00;98212.88;4889174;29;19919;-84
2021/01/12 02:06:28;;;;;;;;;;;;;;;2.05;100.00;98216.28;4904078;29;19926;-86
2021/01/12 02:08:57;;;;;;;;;;;;;;;2.07;100.00;98214.56;4902326;29;19915;-83
2021/01/12 02:11:23;;;;;;;;;;;;;;;2.13;100.00;98206.91;4914455;29;19919;-85
2021/01/12 02:13:51;;;;;;;;;;;;;;;1.98;100.00;98196.88;4902304;29;19930;-84
2021/01/12 02:16:16;;;;;;;;;;;;;;;2.09;100.00;98207.78;4905223;29;20277;-85
2021/01/12 02:18:42;;;;;;;;;;;;;;;2.04;100.00;98194.28;4914721;29;19922;-85
2021/01/12 02:21:07;;;;;;;;;;;;;;;2.03;100.00;98188.38;4905552;29;20443;-84
2021/01/12 02:23:47;;;;;;;;;;;;;;;1.98;100.00;98187.56;4905280;29;19915;-84
2021/01/12 02:26:12;;;;;;;;;;;;;;;1.98;100.00;98179.13;4887751;29;20365;-85
2021/01/12 02:28:38;;;;;;;;;;;;;;;2.05;100.00;98166.34;4906338;29;19971;-85
2021/01/12 02:31:03;;;;;;;;;;;;;;;2.02;100.00;98175.69;4904263;29;19929;-84
2021/01/12 02:33:28;;;;;;;;;;;;;;;1.99;100.00;98160.50;4904692;29;19942;-84
2021/01/12 02:35:54;;;;;;;;;;;;;;;1.99;100.00;98161.34;4906051;29;19988;-84
2021/01/12 02:38:20;;;;;;;;;;;;;;;2.06;100.00;98157.88;4904619;29;19961;-83
2021/01/12 02:40:45;;;;;;;;;;;;;;;2.07;100.00;98148.53;4907823;29;19915;-84
2021/01/12 02:43:10;;;;;;;;;;;;;;;2.01;100.00;98146.94;4909570;29;19922;-84
2021/01/12 02:45:36;;;;;;;;;;;;;;;1.97;100.00;98147.81;4915298;29;19927;-84
2021/01/12 02:48:01;;;;;;;;;;;;;;;1.96;100.00;98136.00;4907766;29;20002;-84
2021/01/12 02:50:26;;;;;;;;;;;;;;;1.98;100.00;98134.25;4904928;29;19919;-85
2021/01/12 02:52:52;;;;;;;;;;;;;;;1.97;100.00;98127.50;4889710;29;19919;-85
2021/01/12 02:55:17;;;;;;;;;;;;;;;1.97;100.00;98119.88;4909147;29;19966;-85
2021/01/12 02:57:43;;;;;;;;;;;;;;;1.95;100.00;98126.66;4907404;29;19918;-84
2021/01/12 03:00:09;;;;;;;;;;;;;;;1.99;100.00;98114.78;4904842;29;20420;-84
2021/01/12 03:02:35;;;;;;;;;;;;;;;1.98;100.00;98113.94;4906459;29;19915;-85
2021/01/12 03:05:00;;;;;;;;;;;;;;;1.91;100.00;98106.41;4908178;29;19939;-85
2021/01/12 03:07:26;;;;;;;;;;;;;;;1.90;100.00;98104.75;4907204;29;19965;-84
2021/01/12 03:09:51;;;;;;;;;;;;;;;1.96;100.00;98095.38;4903466;29;19919;-85
2021/01/12 03:12:16;;;;;;;;;;;;;;;1.96;100.00;98089.41;4908191;29;19919;-84
2021/01/12 03:14:42;;;;;;;;;;;;;;;1.99;100.00;98089.41;4908003;29;20368;-84
2021/01/12 03:17:10;;;;;;;;;;;;;;;1.95;100.00;98092.84;4908270;29;20385;-85
2021/01/12 03:19:36;;;;;;;;;;;;;;;1.97;100.00;98093.66;4905075;29;20293;-85
2021/01/12 03:22:02;;;;;;;;;;;;;;;1.92;100.00;98088.63;4906908;29;19919;-85
2021/01/12 03:24:27;;;;;;;;;;;;;;;1.96;100.00;98082.66;4923777;29;19919;-85
2021/01/12 03:26:53;;;;;;;;;;;;;;;1.97;100.00;98066.56;4906134;29;20353;-85
2021/01/12 03:29:18;;;;;;;;;;;;;;;1.95;100.00;98067.44;4907370;29;20009;-86
2021/01/12 03:31:43;;;;;;;;;;;;;;;1.92;100.00;98060.72;4906686;29;19926;-85
2021/01/12 03:34:09;;;;;;;;;;;;;;;1.87;100.00;98055.69;4909722;29;19941;-85
2021/01/12 03:36:34;;;;;;;;;;;;;;;1.85;100.00;98038.78;4918425;29;20010;-85
2021/01/12 03:38:59;;;;;;;;;;;;;;;1.90;100.00;98039.56;4908767;29;20455;-86
2021/01/12 03:41:25;;;;;;;;;;;;;;;1.90;100.00;98033.66;4905429;29;20638;-85
2021/01/12 03:43:50;;;;;;;;;;;;;;;1.88;100.00;98036.22;4908889;29;20385;-85
2021/01/12 03:46:16;;;;;;;;;;;;;;;1.84;100.00;98030.31;4907850;29;19966;-85
2021/01/12 03:48:41;;;;;;;;;;;;;;;1.75;100.00;98019.44;4904759;29;20380;-85
2021/01/12 03:51:06;;;;;;;;;;;;;;;1.80;100.00;98022.75;4905845;29;19915;-85
2021/01/12 03:53:32;;;;;;;;;;;;;;;1.80;100.00;98018.53;4908384;29;19922;-85
2021/01/12 03:55:57;;;;;;;;;;;;;;;1.81;100.00;98019.38;4906676;29;20449;-85
2021/01/12 03:58:22;;;;;;;;;;;;;;;1.77;100.00;98008.41;4910256;29;19923;-85
2021/01/12 04:00:48;;;;;;;;;;;;;;;1.78;100.00;97999.09;4909651;29;19923;-85
2021/01/12 04:03:13;;;;;;;;;;;;;;;1.73;100.00;98005.94;4905544;29;19919;-85
2021/01/12 04:05:39;;;;;;;;;;;;;;;1.77;100.00;97997.44;4906912;29;19938;-84
2021/01/12 04:08:04;;;;;;;;;;;;;;;1.76;100.00;97991.53;4907080;29;19973;-85
2021/01/12 04:10:30;;;;;;;;;;;;;;;1.76;100.00;97988.16;4904424;29;19919;-85
2021/01/12 04:12:55;;;;;;;;;;;;;;;1.70;100.00;97995.81;4903151;29;19915;-85
2021/01/12 04:15:21;;;;;;;;;;;;;;;1.74;100.00;97989.88;4902587;29;19977;-85
2021/01/12 04:17:46;;;;;;;;;;;;;;;1.74;100.00;97972.09;4906581;29;20347;-85
2021/01/12 04:20:12;;;;;;;;;;;;;;;1.72;100.00;97972.09;4913760;29;20378;-85
2021/01/12 04:22:37;;;;;;;;;;;;;;;1.68;100.00;97965.38;4904756;29;19919;-86
2021/01/12 04:25:04;;;;;;;;;;;;;;;1.71;100.00;97967.03;4901681;29;19979;-84
2021/01/12 04:27:29;;;;;;;;;;;;;;;1.68;100.00;97966.22;4902683;29;20419;-86
2021/01/12 04:29:54;;;;;;;;;;;;;;;1.72;100.00;97958.59;4912995;29;19954;-85
2021/01/12 04:32:20;;;;;;;;;;;;;;;1.63;100.00;97962.91;4906651;29;19915;-85
2021/01/12 04:34:45;;;;;;;;;;;;;;;1.74;100.00;97949.25;4904332;29;19931;-85
2021/01/12 04:37:10;;;;;;;;;;;;;;;1.82;100.00;97952.50;4885986;29;20449;-84
2021/01/12 04:39:36;;;;;;;;;;;;;;;1.76;100.00;97945.00;4902589;29;20574;-85
2021/01/12 04:42:01;;;;;;;;;;;;;;;1.77;100.00;97937.34;4904714;29;19943;-84
2021/01/12 04:44:26;;;;;;;;;;;;;;;1.80;100.00;97931.38;4902450;29;19919;-85
2021/01/12 04:46:52;;;;;;;;;;;;;;;1.65;100.00;97932.44;4902824;29;19934;-85
2021/01/12 04:49:17;;;;;;;;;;;;;;;1.70;100.00;97932.38;4904297;29;19983;-85
2021/01/12 04:51:43;;;;;;;;;;;;;;;1.74;100.00;97931.47;4903666;29;19919;-85
2021/01/12 04:54:08;;;;;;;;;;;;;;;1.73;100.00;97929.78;4912484;29;19929;-85
2021/01/12 04:56:34;;;;;;;;;;;;;;;1.74;100.00;97914.56;4912290;29;20285;-85
2021/01/12 04:58:59;;;;;;;;;;;;;;;1.79;100.00;97914.47;4903289;29;19930;-84
2021/01/12 05:01:25;;;;;;;;;;;;;;;1.81;100.00;97912.75;4902557;29;19919;-86
2021/01/12 05:03:53;;;;;;;;;;;;;;;1.88;100.00;97915.19;4904269;29;19919;-85
2021/01/12 05:06:22;;;;;;;;;;;;;;;1.87;100.00;97903.38;4888415;29;19930;-85
2021/01/12 05:08:56;;;;;;;;;;;;;;;1.82;100.00;97911.88;4905450;29;20208;-85
2021/01/12 05:11:25;;;;;;;;;;;;;;;1.87;100.00;97897.44;4928466;29;19919;-85
2021/01/12 05:13:52;;;;;;;;;;;;;;;1.91;100.00;97893.97;4905453;29;19919;-85
2021/01/12 05:16:18;;;;;;;;;;;;;;;1.89;100.00;97893.16;4903602;29;19919;-85
2021/01/12 05:18:44;;;;;;;;;;;;;;;1.82;100.00;97884.81;4912865;29;20264;-84
2021/01/12 05:21:10;;;;;;;;;;;;;;;1.92;100.00;97882.97;4907182;29;19939;-85
2021/01/12 05:23:43;;;;;;;;;;;;;;;2.00;100.00;97877.78;4912416;29;19915;-85
2021/01/12 05:26:09;;;;;;;;;;;;;;;1.94;100.00;97890.56;4909172;29;19995;-84
2021/01/12 05:28:34;;;;;;;;;;;;;;;2.02;100.00;97876.88;4894680;29;20366;-84
2021/01/12 05:30:59;;;;;;;;;;;;;;;2.01;100.00;97872.69;4923110;29;19915;-85
2021/01/12 05:33:25;;;;;;;;;;;;;;;2.00;100.00;97868.44;4896123;29;19971;-84
2021/01/12 05:35:51;;;;;;;;;;;;;;;2.12;100.00;97871.66;4892860;29;19919;-84
2021/01/12 05:38:29;;;;;;;;;;;;;;;2.08;100.00;97856.47;4887055;29;19915;-84
2021/01/12 05:40:55;;;;;;;;;;;;;;;2.07;100.00;97861.56;4902275;29;20610;-83
2021/01/12 05:43:44;;;;;;;;;;;;;;;2.16;100.00;97852.97;4917004;29;19915;-85
2021/01/12 05:46:15;;;;;;;;;;;;;;;2.11;100.00;97850.50;4912706;29;19976;-84
2021/01/12 05:48:41;;;;;;;;;;;;;;;2.13;100.00;97847.94;4918054;29;19918;-83
2021/01/12 05:51:07;;;;;;;;;;;;;;;2.11;100.00;97844.59;4905233;29;19915;-83
2021/01/12 05:53:42;;;;;;;;;;;;;;;2.04;100.00;97844.69;4914811;29;19981;-83
2021/01/12 05:56:08;;;;;;;;;;;;;;;2.09;100.00;97837.00;4921152;29;19997;-83
2021/01/12 05:58:33;;;;;;;;;;;;;;;2.09;100.00;97842.91;4906330;29;20002;-84
2021/01/12 06:01:00;;;;;;;;;;;;;;;2.14;100.00;97834.38;4906227;29;20314;-84
2021/01/12 06:03:26;;;;;;;;;;;;;;;2.16;100.00;97837.72;4904837;29;19918;-83
2021/01/12 06:05:51;;;;;;;;;;;;;;;2.22;100.00;97832.56;4905437;29;20270;-85
2021/01/12 06:08:16;;;;;;;;;;;;;;;2.21;100.00;97830.88;4932720;29;19919;-86
2021/01/12 06:10:43;;;;;;;;;;;;;;;2.17;100.00;97830.09;4916617;29;19961;-85
2021/01/12 06:13:11;;;;;;;;;;;;;;;2.16;100.00;97832.66;4907582;29;19926;-85
2021/01/12 06:15:37;;;;;;;;;;;;;;;2.20;100.00;97830.03;4905455;29;19998;-85
2021/01/12 06:18:05;;;;;;;;;;;;;;;2.23;100.00;97824.06;4905519;29;20019;-85
2021/01/12 06:20:32;;;;;;;;;;;;;;;2.27;100.00;97823.16;4905316;29;19950;-85
2021/01/12 06:22:58;;;;;;;;;;;;;;;2.25;100.00;97822.34;4908778;29;19942;-85
2021/01/12 06:25:23;;;;;;;;;;;;;;;2.28;100.00;97827.34;4909711;29;19923;-85
2021/01/12 06:27:48;;;;;;;;;;;;;;;2.18;100.00;97820.78;4910177;29;19918;-85
2021/01/12 06:30:15;;;;;;;;;;;;;;;2.30;100.00;97820.53;4907545;29;19919;-86
2021/01/12 06:32:40;;;;;;;;;;;;;;;2.29;100.00;97818.88;4905615;29;20003;-85
2021/01/12 06:35:07;;;;;;;;;;;;;;;2.35;100.00;97808.63;4908403;29;20025;-85
2021/01/12 06:37:33;;;;;;;;;;;;;;;2.39;100.00;97806.84;4915087;29;19919;-85
2021/01/12 06:39:59;;;;;;;;;;;;;;;2.34;100.00;97799.31;4903777;29;19926;-85
2021/01/12 06:42:26;;;;;;;;;;;;;;;2.40;100.00;97801.75;4914712;29;19981;-85
2021/01/12 06:44:52;;;;;;;;;;;;;;;2.30;100.00;97806.16;4914663;29;19922;-85
2021/01/12 06:47:19;;;;;;;;;;;;;;;2.35;100.00;97808.63;4905725;29;19937;-85
2021/01/12 06:49:44;;;;;;;;;;;;;;;2.35;100.00;97788.28;4906850;29;19926;-84
2021/01/12 06:52:10;;;;;;;;;;;;;;;2.39;100.00;97789.88;4907063;29;19921;-85
2021/01/12 06:54:37;;;;;;;;;;;;;;;2.41;100.00;97782.25;4915893;29;20381;-85
2021/01/12 06:57:06;;;;;;;;;;;;;;;2.39;100.00;97782.25;4907119;29;19923;-85
2021/01/12 06:59:35;;;;;;;;;;;;;;;2.40;100.00;97785.66;4910438;29;19926;-87
2021/01/12 07:02:00;;;;;;;;;;;;;;;2.38;100.00;97793.31;4907620;29;20005;-86
2021/01/12 07:04:29;;;;;;;;;;;;;;;2.41;100.00;97788.16;4908369;29;19950;-85
2021/01/12 07:06:59;;;;;;;;;;;;;;;2.47;100.00;97787.22;4906287;29;20408;-85
2021/01/12 07:09:54;;;;;;;;;;;;;;;2.44;100.00;97793.19;4893557;29;20574;-85
2021/01/12 07:13:16;;;;;;;;;;;;;;;2.51;100.00;97789.66;4934352;29;20341;-86
2021/01/12 07:16:10;;;;;;;;;;;;;;;2.49;100.00;97799.03;4889052;29;19926;-86
2021/01/12 07:22:20;;;;;;;;;;;;;;;2.56;100.00;97793.84;4936322;29;19926;-85
2021/01/12 07:36:03;;;;;;;;;;;;;;;2.62;100.00;97783.53;4829101;22;20275;-85
2021/01/12 07:38:29;;;;;;;;;;;;;;;2.77;100.00;97780.69;5020010;28;19932;-84
2021/01/12 07:40:56;;;;;;;;;;;;;;;2.68;100.00;97775.78;4995719;28;20012;-84
2021/01/12 07:43:22;;;;;;;;;;;;;;;2.70;100.00;97785.06;4993829;28;19925;-85
2021/01/12 07:45:48;;;;;;;;;;;;;;;2.73;100.00;97779.91;5009899;28;20891;-86
2021/01/12 07:48:14;;;;;;;;;;;;;;;2.79;100.00;97773.03;4993545;28;20268;-85
2021/01/12 07:50:41;;;;;;;;;;;;;;;2.82;100.00;97781.44;4993724;28;20067;-84
2021/01/12 07:53:07;;;;;;;;;;;;;;;2.86;100.00;97770.31;4993308;28;19913;-85
2021/01/12 07:55:32;;;;;;;;;;;;;;;2.77;100.00;97775.59;4978754;28;19919;-83
2021/01/12 07:57:58;;;;;;;;;;;;;;;2.81;100.00;97776.41;4994976;28;19917;-83
2021/01/12 08:00:24;;;;;;;;;;;;;;;2.82;100.00;97768.72;5010495;28;19923;-83
2021/01/12 08:02:50;;;;;;;;;;;;;;;2.82;100.00;97778.06;4994395;28;20005;-83
2021/01/12 08:05:16;;;;;;;;;;;;;;;2.83;100.00;97779.72;5009937;28;19963;-83
2021/01/12 08:07:41;;;;;;;;;;;;;;;2.99;100.00;97770.06;4977575;28;20295;-83
2021/01/12 08:10:07;;;;;;;;;;;;;;;3.00;100.00;97767.50;5010141;28;19917;-84
2021/01/12 08:12:33;;;;;;;;;;;;;;;3.04;100.00;97774.19;5008540;28;19924;-84
2021/01/12 08:15:12;;;;;;;;;;;;;;;3.00;100.00;97756.50;4991739;28;20443;-83
2021/01/12 08:17:46;;;;;;;;;;;;;;;3.03;100.00;97776.75;5008848;28;19917;-83
2021/01/12 08:20:12;;;;;;;;;;;;;;;3.03;100.00;97772.50;5009050;28;20383;-83
2021/01/12 08:22:37;;;;;;;;;;;;;;;3.01;100.00;97768.31;4992775;28;19914;-83
2021/01/12 08:25:04;;;;;;;;;;;;;;;3.11;100.00;97765.56;5010529;28;20268;-84
2021/01/12 08:27:29;;;;;;;;;;;;;;;3.16;100.00;97752.72;5011005;28;19921;-84
2021/01/12 08:30:00;;;;;;;;;;;;;;;3.29;100.00;97764.31;4994381;28;19928;-83
2021/01/12 08:32:25;;;;;;;;;;;;;;;3.30;100.00;97760.88;5010173;28;20429;-83
2021/01/12 08:34:50;;;;;;;;;;;;;;;3.35;100.00;97760.78;4994465;28;19925;-84
2021/01/12 08:37:16;;;;;;;;;;;;;;;3.38;100.00;97758.19;4993155;28;20004;-83
2021/01/12 08:39:41;;;;;;;;;;;;;;;3.32;100.00;97759.13;5010762;28;19921;-84
2021/01/12 08:42:07;;;;;;;;;;;;;;;3.28;100.00;97761.78;5011409;28;19914;-83
2021/01/12 08:44:33;;;;;;;;;;;;;;;3.30;100.00;97762.59;5011497;28;19914;-83
2021/01/12 08:47:03;;;;;;;;;;;;;;;3.27;100.00;97760.97;5009267;28;20379;-83
2021/01/12 08:49:29;;;;;;;;;;;;;;;3.25;100.00;97767.78;4992448;28;19935;-82
2021/01/12 08:51:54;;;;;;;;;;;;;;;3.34;100.00;97769.28;5008910;28;19921;-83
2021/01/12 08:54:20;;;;;;;;;;;;;;;3.35;100.00;97771.81;5008150;28;19913;-83
2021/01/12 08:56:53;;;;;;;;;;;;;;;3.40;100.00;97781.03;5008491;28;19979;-83
2021/01/12 08:59:39;;;;;;;;;;;;;;;3.16;100.00;97778.16;4979562;28;20013;-83
2021/01/12 09:02:16;;;;;;;;;;;;;;;3.30;100.00;97786.31;5010427;28;19918;-84
2021/01/12 09:04:49;;;;;;;;;;;;;;;3.35;100.00;97782.00;4993406;28;19924;-80
2021/01/12 09:07:44;;;;;;;;;;;;;;;3.40;100.00;97786.97;5011644;28;19926;-81
2021/01/12 09:10:44;;;;;;;;;;;;;;;3.41;100.00;97790.34;4993751;28;20025;-84
2021/01/12 09:13:17;;;;;;;;;;;;;;;3.57;100.00;97794.22;4991801;28;19918;-83
2021/01/12 09:15:51;;;;;;;;;;;;;;;3.59;100.00;97782.28;4977577;28;19935;-83
2021/01/12 09:18:26;;;;;;;;;;;;;;;3.58;100.00;97790.81;4993171;28;19921;-81
2021/01/12 09:20:56;;;;;;;;;;;;;;;3.48;100.00;97796.97;4975514;28;19917;-84
2021/01/12 09:23:22;;;;;;;;;;;;;;;3.55;100.00;97822.25;4992035;28;20055;-82
2021/01/12 09:25:53;;;;;;;;;;;;;;;3.62;100.00;97822.94;5006597;28;20454;-82
2021/01/12 09:28:23;;;;;;;;;;;;;;;3.62;100.00;97822.94;4990626;28;20378;-83
2021/01/12 09:30:49;;;;;;;;;;;;;;;3.57;100.00;97824.75;5006386;28;19948;-82
2021/01/12 09:33:24;;;;;;;;;;;;;;;3.61;100.00;97823.81;5004757;28;19922;-81
2021/01/12 09:36:01;;;;;;;;;;;;;;;3.69;100.00;97828.72;5005824;28;19925;-82
2021/01/12 09:38:34;;;;;;;;;;;;;;;3.85;100.00;97829.19;5005816;28;19970;-82
2021/01/12 09:40:59;;;;;;;;;;;;;;;4.04;100.00;97829.59;5006200;28;19918;-84
2021/01/12 09:43:26;;;;;;;;;;;;;;;4.13;100.00;97825.13;4990915;28;20184;-84
2021/01/12 09:45:53;;;;;;;;;;;;;;;4.17;100.00;97831.81;4990712;28;19929;-84
2021/01/12 09:48:19;;;;;;;;;;;;;;;4.18;100.00;97833.47;4989446;28;20036;-84
2021/01/12 09:50:44;;;;;;;;;;;;;;;4.18;100.00;97837.75;5006262;28;19976;-84
2021/01/12 09:53:09;;;;;;;;;;;;;;;4.14;100.00;97839.53;4991596;28;20425;-84
2021/01/12 09:55:35;;;;;;;;;;;;;;;4.16;100.00;97847.97;4991048;28;19936;-84
2021/01/12 09:58:01;;;;;;;;;;;;;;;4.14;100.00;97842.06;4989904;28;19932;-84
2021/01/12 10:00:28;;;;;;;;;;;;;;;4.23;100.00;97855.47;4990402;28;19924;-84
2021/01/12 10:02:53;;;;;;;;;;;;;;;4.29;100.00;97860.38;4990886;28;19935;-84
2021/01/12 10:05:20;;;;;;;;;;;;;;;4.32;100.00;97865.44;5005201;28;19917;-84
2021/01/12 10:07:46;;;;;;;;;;;;;;;4.36;100.00;97855.13;4990292;28;20722;-83
2021/01/12 10:10:11;;;;;;;;;;;;;;;-144.34;100.00;60189.88;4990288;28;19960;-84
2021/01/12 10:12:38;;;;;;;;;;;;;;;4.36;100.00;97861.94;5005996;28;19920;-84
2021/01/12 10:15:04;;;;;;;;;;;;;;;4.38;100.00;97860.19;5005732;28;19917;-84
2021/01/12 10:17:29;;;;;;;;;;;;;;;4.35;100.00;97857.69;4990526;28;19932;-84
2021/01/12 10:19:54;;;;;;;;;;;;;;;4.37;100.00;97849.13;5006298;28;19918;-84
2021/01/12 10:22:20;;;;;;;;;;;;;;;4.34;100.00;97856.03;5006614;28;19917;-84
2021/01/12 10:24:45;;;;;;;;;;;;;;;4.37;100.00;97858.50;5006166;28;19922;-84
2021/01/12 10:27:11;;;;;;;;;;;;;;;4.35;100.00;97860.25;4990152;28;20012;-84
2021/01/12 10:29:37;;;;;;;;;;;;;;;4.35;100.00;97860.25;5006043;28;19964;-84
2021/01/12 10:32:02;;;;;;;;;;;;;;;4.35;100.00;97867.88;5005104;28;20012;-84
2021/01/12 10:34:28;;;;;;;;;;;;;;;4.35;100.00;97866.16;5007951;28;20043;-84
2021/01/12 10:36:53;;;;;;;;;;;;;;;4.34;100.00;97869.59;5007548;28;19917;-84
2021/01/12 10:39:19;;;;;;;;;;;;;;;4.36;100.00;97872.97;4990740;28;19918;-84
2021/01/12 10:41:44;;;;;;;;;;;;;;;4.36;100.00;97865.31;4991420;28;19924;-84
2021/01/12 10:44:10;;;;;;;;;;;;;;;4.41;100.00;97872.84;5007768;28;19913;-84
2021/01/12 10:46:35;;;;;;;;;;;;;;;4.40;100.00;97881.34;4992014;28;19925;-84
2021/01/12 10:49:01;;;;;;;;;;;;;;;4.42;100.00;97871.94;5009075;28;19913;-85
2021/01/12 10:51:26;;;;;;;;;;;;;;;4.42;100.00;97879.59;5009032;28;19971;-85
2021/01/12 10:53:52;;;;;;;;;;;;;;;4.40;100.00;97881.34;5011174;28;19917;-84
2021/01/12 10:56:18;;;;;;;;;;;;;;;4.40;100.00;97881.34;4997490;28;19925;-85
2021/01/12 10:58:43;;;;;;;;;;;;;;;4.40;100.00;97886.44;5009860;28;19917;-85
2021/01/12 11:01:10;;;;;;;;;;;;;;;4.39;100.00;97900.91;5012252;28;19917;-84
2021/01/12 11:03:37;;;;;;;;;;;;;;;4.40;100.00;97881.34;4996373;28;19922;-85
2021/01/12 11:06:07;;;;;;;;;;;;;;;4.35;100.00;97895.94;4993426;28;20353;-84
2021/01/12 11:08:33;;;;;;;;;;;;;;;4.36;100.00;97889.97;5011278;28;19944;-84
2021/01/12 11:11:01;;;;;;;;;;;;;;;4.35;100.00;97901.03;4993927;28;19918;-83
2021/01/12 11:13:26;;;;;;;;;;;;;;;4.41;100.00;97888.13;4993698;28;20298;-83
2021/01/12 11:15:55;;;;;;;;;;;;;;;-144.34;100.00;60189.88;4994634;28;19922;-84
2021/01/12 11:18:21;;;;;;;;;;;;;;;-144.34;100.00;60189.88;4978479;28;20318;-85
2021/01/12 11:21:02;;;;;;;;;;;;;;;-144.34;100.00;60189.88;5011711;28;19921;-84
2021/01/12 11:23:28;;;;;;;;;;;;;;;4.55;100.00;97890.34;4993817;28;19913;-84
2021/01/12 11:25:53;;;;;;;;;;;;;;;-144.34;100.00;60189.88;4991769;28;19922;-83
2021/01/12 11:29:17;;;;;;;;;;;;;;;-144.34;100.00;60189.88;5010834;28;20438;-84
2021/01/12 11:32:43;;;;;;;;;;;;;;;-144.34;100.00;60189.88;4994212;28;19918;-83
2021/01/12 11:36:07;;;;;;;;;;;;;;;-144.34;100.00;60189.88;4990454;28;20403;-83
2021/01/12 11:39:32;;;;;;;;;;;;;;;-144.34;100.00;60189.88;4974048;28;19997;-82
2021/01/12 11:42:58;;;;;;;;;;;;;;;-144.34;100.00;60189.88;4990542;28;20498;-83
2021/01/12 11:46:30;;;;;;;;;;;;;;;-144.34;100.00;60189.88;4973824;28;19921;-83
2021/01/12 11:49:56;;;;;;;;;;;;;;;-144.34;100.00;60189.88;4991360;28;20397;-83
2021/01/12 11:53:21;;;;;;;;;;;;;;;-144.34;100.00;60189.88;4989950;28;19928;-84
2021/01/12 11:56:50;;;;;;;;;;;;;;;-144.34;100.00;60189.88;4990263;28;19972;-83
2021/01/12 12:00:14;;;;;;;;;;;;;;;-144.34;100.00;60189.88;4988351;28;19918;-84
2021/01/12 12:03:39;;;;;;;;;;;;;;;-144.34;100.00;60189.88;4990113;28;19921;-84
2021/01/12 12:07:04;;;;;;;;;;;;;;;-144.34;100.00;60189.88;4989943;28;19998;-84
2021/01/12 12:10:27;;;;;;;;;;;;;;;-144.34;100.00;60189.88;4989672;28;19917;-83
2021/01/12 12:13:51;;;;;;;;;;;;;;;-144.34;100.00;60189.88;4973597;28;19921;-83
2021/01/12 12:17:15;;;;;;;;;;;;;;;-144.34;100.00;60189.88;4989964;28;19913;-83
2021/01/12 12:20:41;;;;;;;;;;;;;;;-144.34;100.00;60189.88;4990138;28;19924;-83
2021/01/12 12:24:04;;;;;;;;;;;;;;;-144.34;100.00;60189.88;4974008;28;19918;-83
2021/01/12 12:27:28;;;;;;;;;;;;;;;-144.34;100.00;60189.88;4989711;28;19918;-84
2021/01/12 12:30:58;;;;;;;;;;;;;;;-144.34;100.00;60189.88;4972957;28;19918;-84
2021/01/12 12:34:22;;;;;;;;;;;;;;;-144.34;100.00;60189.88;4989799;28;19975;-83
2021/01/12 12:37:46;;;;;;;;;;;;;;;-144.34;100.00;60189.88;4990657;28;19926;-83
2021/01/12 12:41:11;;;;;;;;;;;;;;;-144.34;100.00;60189.88;5009147;28;19917;-83
2021/01/12 12:44:35;;;;;;;;;;;;;;;-144.34;100.00;60189.88;5007367;28;19921;-83
2021/01/12 12:48:03;;;;;;;;;;;;;;;-144.34;100.00;60189.88;4988857;28;19974;-83
2021/01/12 12:51:27;;;;;;;;;;;;;;;-144.34;100.00;60189.88;4993740;28;19918;-84
2021/01/12 12:54:51;;;;;;;;;;;;;;;-144.34;100.00;60189.88;4992428;28;19967;-85
2021/01/12 12:58:14;;;;;;;;;;;;;;;-144.34;100.00;60189.88;4990599;28;19921;-85
2021/01/12 13:01:39;;;;;;;;;;;;;;;-144.34;100.00;60189.88;4990950;28;19917;-83
2021/01/12 13:05:03;;;;;;;;;;;;;;;-144.34;100.00;60189.88;4974687;28;19918;-83
2021/01/12 13:08:30;;;;;;;;;;;;;;;-144.34;100.00;60189.88;5007283;28;20489;-83
2021/01/12 13:11:54;;;;;;;;;;;;;;;-144.34;100.00;60189.88;4991492;28;19917;-83
2021/01/12 13:15:19;;;;;;;;;;;;;;;-144.34;100.00;60189.88;4990494;28;19914;-83
2021/01/12 13:18:44;;;;;;;;;;;;;;;-144.34;100.00;60189.88;5006741;28;19924;-82
2021/01/12 13:22:09;;;;;;;;;;;;;;;-144.34;100.00;60189.88;4988164;28;20424;-83
2021/01/12 13:25:33;;;;;;;;;;;;;;;-144.34;100.00;60189.88;5004018;28;19918;-83
2021/01/12 13:28:57;;;;;;;;;;;;;;;-144.34;100.00;60189.88;5002880;28;19948;-83
2021/01/12 13:32:21;;;;;;;;;;;;;;;-144.34;100.00;60189.88;5004277;28;20367;-83
2021/01/12 13:35:46;;;;;;;;;;;;;;;-144.34;100.00;60189.88;4984471;28;19926;-84